sensor_id;sensor_type;location;lat;lon;timestamp;temperature;humidity
9497;DHT22;4786;51.270;4.456;2023-02-28T00:00:49;1.70;99.90
9497;DHT22;4786;51.270;4.456;2023-02-28T00:03:15;1.50;99.90
9497;DHT22;4786;51.270;4.456;2023-02-28T00:05:41;1.50;99.90
9497;DHT22;4786;51.270;4.456;2023-02-28T00:08:08;1.80;99.90
9497;DHT22;4786;51.270;4.456;2023-02-28T00:10:34;1.40;99.90
9497;DHT22;4786;51.270;4.456;2023-02-28T00:13:03;1.30;99.90
9497;DHT22;4786;51.270;4.456;2023-02-28T00:15:30;1.60;99.90
9497;DHT22;4786;51.270;4.456;2023-02-28T00:17:56;1.40;99.90
9497;DHT22;4786;51.270;4.456;2023-02-28T00:20:23;1.30;99.90
9497;DHT22;4786;51.270;4.456;2023-02-28T00:22:51;1.40;99.90
9497;DHT22;4786;51.270;4.456;2023-02-28T00:25:20;1.30;99.90
9497;DHT22;4786;51.270;4.456;2023-02-28T00:27:48;1.30;99.90
9497;DHT22;4786;51.270;4.456;2023-02-28T00:30:20;1.40;99.90
9497;DHT22;4786;51.270;4.456;2023-02-28T00:32:47;1.30;99.90
9497;DHT22;4786;51.270;4.456;2023-02-28T00:35:13;1.50;99.90
9497;DHT22;4786;51.270;4.456;2023-02-28T00:37:40;1.30;99.90
9497;DHT22;4786;51.270;4.456;2023-02-28T00:40:06;1.40;99.90
9497;DHT22;4786;51.270;4.456;2023-02-28T00:42:33;1.30;99.90
9497;DHT22;4786;51.270;4.456;2023-02-28T00:45:00;1.30;99.90
9497;DHT22;4786;51.270;4.456;2023-02-28T00:47:26;1.30;99.90
9497;DHT22;4786;51.270;4.456;2023-02-28T00:49:52;1.30;99.90
9497;DHT22;4786;51.270;4.456;2023-02-28T00:52:17;1.50;99.90
9497;DHT22;4786;51.270;4.456;2023-02-28T00:54:43;1.50;99.90
9497;DHT22;4786;51.270;4.456;2023-02-28T00:57:09;1.30;99.90
9497;DHT22;4786;51.270;4.456;2023-02-28T00:59:35;1.30;99.90
9497;DHT22;4786;51.270;4.456;2023-02-28T01:02:01;1.30;99.90
9497;DHT22;4786;51.270;4.456;2023-02-28T01:04:27;1.50;99.90
9497;DHT22;4786;51.270;4.456;2023-02-28T01:06:53;1.30;99.90
9497;DHT22;4786;51.270;4.456;2023-02-28T01:09:19;1.30;99.90
9497;DHT22;4786;51.270;4.456;2023-02-28T01:11:45;1.30;99.90
9497;DHT22;4786;51.270;4.456;2023-02-28T01:14:16;1.30;99.90
9497;DHT22;4786;51.270;4.456;2023-02-28T01:16:43;1.50;99.90
9497;DHT22;4786;51.270;4.456;2023-02-28T01:19:09;1.30;99.90
9497;DHT22;4786;51.270;4.456;2023-02-28T01:21:34;1.70;99.90
9497;DHT22;4786;51.270;4.456;2023-02-28T01:24:01;1.40;99.90
9497;DHT22;4786;51.270;4.456;2023-02-28T01:26:28;1.40;99.90
9497;DHT22;4786;51.270;4.456;2023-02-28T01:28:54;1.60;99.90
9497;DHT22;4786;51.270;4.456;2023-02-28T01:31:21;1.40;99.90
9497;DHT22;4786;51.270;4.456;2023-02-28T01:33:47;1.30;99.90
9497;DHT22;4786;51.270;4.456;2023-02-28T01:36:19;1.30;99.90
9497;DHT22;4786;51.270;4.456;2023-02-28T01:38:46;1.30;99.90
9497;DHT22;4786;51.270;4.456;2023-02-28T01:46:12;1.40;99.90
9497;DHT22;4786;51.270;4.456;2023-02-28T01:48:51;1.20;99.90
9497;DHT22;4786;51.270;4.456;2023-02-28T01:51:22;1.20;99.90
9497;DHT22;4786;51.270;4.456;2023-02-28T01:53:55;1.20;99.90
9497;DHT22;4786;51.270;4.456;2023-02-28T01:56:27;1.10;99.90
9497;DHT22;4786;51.270;4.456;2023-02-28T01:58:55;1.30;99.90
9497;DHT22;4786;51.270;4.456;2023-02-28T02:01:22;1.10;99.90
9497;DHT22;4786;51.270;4.456;2023-02-28T02:03:51;1.00;99.90
9497;DHT22;4786;51.270;4.456;2023-02-28T02:06:36;1.00;99.90
9497;DHT22;4786;51.270;4.456;2023-02-28T02:09:03;0.90;99.90
9497;DHT22;4786;51.270;4.456;2023-02-28T02:11:30;1.00;99.90
9497;DHT22;4786;51.270;4.456;2023-02-28T02:16:58;0.90;99.90
9497;DHT22;4786;51.270;4.456;2023-02-28T02:25:23;0.80;99.90
9497;DHT22;4786;51.270;4.456;2023-02-28T02:41:28;0.80;99.90
9497;DHT22;4786;51.270;4.456;2023-02-28T02:44:04;0.70;99.90
9497;DHT22;4786;51.270;4.456;2023-02-28T02:46:34;1.00;99.90
9497;DHT22;4786;51.270;4.456;2023-02-28T02:49:08;0.70;99.90
9497;DHT22;4786;51.270;4.456;2023-02-28T02:51:35;0.80;99.90
9497;DHT22;4786;51.270;4.456;2023-02-28T02:54:08;0.80;99.90
9497;DHT22;4786;51.270;4.456;2023-02-28T02:56:36;0.80;99.90
9497;DHT22;4786;51.270;4.456;2023-02-28T02:59:08;0.80;99.90
9497;DHT22;4786;51.270;4.456;2023-02-28T03:01:36;1.00;99.90
9497;DHT22;4786;51.270;4.456;2023-02-28T03:04:08;0.90;99.90
9497;DHT22;4786;51.270;4.456;2023-02-28T03:06:34;0.90;99.90
9497;DHT22;4786;51.270;4.456;2023-02-28T03:09:01;1.00;99.90
9497;DHT22;4786;51.270;4.456;2023-02-28T03:11:27;0.90;99.90
9497;DHT22;4786;51.270;4.456;2023-02-28T03:19:47;1.00;99.90
9497;DHT22;4786;51.270;4.456;2023-02-28T03:22:46;1.10;99.90
9497;DHT22;4786;51.270;4.456;2023-02-28T03:25:43;1.20;99.90
9497;DHT22;4786;51.270;4.456;2023-02-28T03:30:44;1.20;99.90
9497;DHT22;4786;51.270;4.456;2023-02-28T03:33:18;1.20;99.90
9497;DHT22;4786;51.270;4.456;2023-02-28T03:36:05;1.20;99.90
9497;DHT22;4786;51.270;4.456;2023-02-28T03:41:23;1.30;99.90
9497;DHT22;4786;51.270;4.456;2023-02-28T03:43:58;1.30;99.90
9497;DHT22;4786;51.270;4.456;2023-02-28T03:46:28;1.30;99.90
9497;DHT22;4786;51.270;4.456;2023-02-28T03:49:03;1.40;99.90
9497;DHT22;4786;51.270;4.456;2023-02-28T03:51:32;1.60;99.90
9497;DHT22;4786;51.270;4.456;2023-02-28T03:54:05;1.50;99.90
9497;DHT22;4786;51.270;4.456;2023-02-28T03:56:40;1.50;99.90
9497;DHT22;4786;51.270;4.456;2023-02-28T04:01:53;1.60;99.90
9497;DHT22;4786;51.270;4.456;2023-02-28T04:04:20;1.60;99.90
9497;DHT22;4786;51.270;4.456;2023-02-28T04:06:50;1.70;99.90
9497;DHT22;4786;51.270;4.456;2023-02-28T04:09:16;1.70;99.90
9497;DHT22;4786;51.270;4.456;2023-02-28T04:11:50;1.70;99.90
9497;DHT22;4786;51.270;4.456;2023-02-28T04:14:17;1.80;99.90
9497;DHT22;4786;51.270;4.456;2023-02-28T04:16:43;2.00;99.90
9497;DHT22;4786;51.270;4.456;2023-02-28T04:19:10;1.80;99.90
9497;DHT22;4786;51.270;4.456;2023-02-28T04:21:39;1.80;99.90
9497;DHT22;4786;51.270;4.456;2023-02-28T04:24:07;1.80;99.90
9497;DHT22;4786;51.270;4.456;2023-02-28T04:26:35;1.80;99.90
9497;DHT22;4786;51.270;4.456;2023-02-28T04:29:02;1.80;99.90
9497;DHT22;4786;51.270;4.456;2023-02-28T04:31:28;1.80;99.90
9497;DHT22;4786;51.270;4.456;2023-02-28T04:33:54;1.80;99.90
9497;DHT22;4786;51.270;4.456;2023-02-28T04:36:20;2.10;99.90
9497;DHT22;4786;51.270;4.456;2023-02-28T04:38:48;1.80;99.90
9497;DHT22;4786;51.270;4.456;2023-02-28T04:41:14;1.70;99.90
9497;DHT22;4786;51.270;4.456;2023-02-28T04:43:40;1.80;99.90
9497;DHT22;4786;51.270;4.456;2023-02-28T04:46:06;1.80;99.90
9497;DHT22;4786;51.270;4.456;2023-02-28T04:48:35;1.80;99.90
9497;DHT22;4786;51.270;4.456;2023-02-28T04:51:06;1.80;99.90
9497;DHT22;4786;51.270;4.456;2023-02-28T04:53:33;1.80;99.90
9497;DHT22;4786;51.270;4.456;2023-02-28T04:55:59;1.90;99.90
9497;DHT22;4786;51.270;4.456;2023-02-28T04:58:25;1.80;99.90
9497;DHT22;4786;51.270;4.456;2023-02-28T05:00:54;2.10;99.90
9497;DHT22;4786;51.270;4.456;2023-02-28T05:03:26;1.90;99.90
9497;DHT22;4786;51.270;4.456;2023-02-28T05:05:52;2.00;99.90
9497;DHT22;4786;51.270;4.456;2023-02-28T05:08:18;2.10;99.90
9497;DHT22;4786;51.270;4.456;2023-02-28T05:10:44;2.00;99.90
9497;DHT22;4786;51.270;4.456;2023-02-28T05:13:13;2.00;99.90
9497;DHT22;4786;51.270;4.456;2023-02-28T05:15:39;2.00;99.90
9497;DHT22;4786;51.270;4.456;2023-02-28T05:18:05;2.10;99.90
9497;DHT22;4786;51.270;4.456;2023-02-28T05:20:31;2.10;99.90
9497;DHT22;4786;51.270;4.456;2023-02-28T05:22:59;2.30;99.90
9497;DHT22;4786;51.270;4.456;2023-02-28T05:25:25;2.10;99.90
9497;DHT22;4786;51.270;4.456;2023-02-28T05:27:51;2.10;99.90
9497;DHT22;4786;51.270;4.456;2023-02-28T05:30:18;2.30;99.90
9497;DHT22;4786;51.270;4.456;2023-02-28T05:32:44;2.20;99.90
9497;DHT22;4786;51.270;4.456;2023-02-28T05:35:15;2.40;99.90
9497;DHT22;4786;51.270;4.456;2023-02-28T05:37:41;2.10;99.90
9497;DHT22;4786;51.270;4.456;2023-02-28T05:40:07;2.10;99.90
9497;DHT22;4786;51.270;4.456;2023-02-28T05:42:37;2.10;99.90
9497;DHT22;4786;51.270;4.456;2023-02-28T05:45:05;2.10;99.90
9497;DHT22;4786;51.270;4.456;2023-02-28T05:47:32;2.20;99.90
9497;DHT22;4786;51.270;4.456;2023-02-28T05:49:58;2.10;99.90
9497;DHT22;4786;51.270;4.456;2023-02-28T05:52:23;2.20;99.90
9497;DHT22;4786;51.270;4.456;2023-02-28T05:54:49;2.20;99.90
9497;DHT22;4786;51.270;4.456;2023-02-28T05:57:15;2.20;99.90
9497;DHT22;4786;51.270;4.456;2023-02-28T05:59:41;2.10;99.90
9497;DHT22;4786;51.270;4.456;2023-02-28T06:02:15;2.10;99.90
9497;DHT22;4786;51.270;4.456;2023-02-28T06:04:42;2.10;99.90
9497;DHT22;4786;51.270;4.456;2023-02-28T06:07:09;2.20;99.90
9497;DHT22;4786;51.270;4.456;2023-02-28T06:09:36;2.20;99.90
9497;DHT22;4786;51.270;4.456;2023-02-28T06:12:03;2.50;99.90
9497;DHT22;4786;51.270;4.456;2023-02-28T06:14:31;2.20;99.90
9497;DHT22;4786;51.270;4.456;2023-02-28T06:16:59;2.20;99.90
9497;DHT22;4786;51.270;4.456;2023-02-28T06:19:26;2.20;99.90
9497;DHT22;4786;51.270;4.456;2023-02-28T06:21:54;2.50;99.90
9497;DHT22;4786;51.270;4.456;2023-02-28T06:24:22;2.20;99.90
9497;DHT22;4786;51.270;4.456;2023-02-28T06:26:48;2.20;99.90
9497;DHT22;4786;51.270;4.456;2023-02-28T06:29:14;2.40;99.90
9497;DHT22;4786;51.270;4.456;2023-02-28T06:31:44;2.30;99.90
9497;DHT22;4786;51.270;4.456;2023-02-28T06:34:11;2.30;99.90
9497;DHT22;4786;51.270;4.456;2023-02-28T06:36:39;2.30;99.90
9497;DHT22;4786;51.270;4.456;2023-02-28T06:39:06;2.30;99.90
9497;DHT22;4786;51.270;4.456;2023-02-28T06:41:32;2.30;99.90
9497;DHT22;4786;51.270;4.456;2023-02-28T06:44:13;2.40;99.90
9497;DHT22;4786;51.270;4.456;2023-02-28T06:46:43;2.40;99.90
9497;DHT22;4786;51.270;4.456;2023-02-28T06:49:09;2.40;99.90
9497;DHT22;4786;51.270;4.456;2023-02-28T06:51:38;2.50;99.90
9497;DHT22;4786;51.270;4.456;2023-02-28T06:54:05;2.40;99.90
9497;DHT22;4786;51.270;4.456;2023-02-28T06:56:31;2.40;99.90
9497;DHT22;4786;51.270;4.456;2023-02-28T06:58:56;2.50;99.90
9497;DHT22;4786;51.270;4.456;2023-02-28T07:01:23;2.50;99.90
9497;DHT22;4786;51.270;4.456;2023-02-28T07:03:49;2.50;99.90
9497;DHT22;4786;51.270;4.456;2023-02-28T07:06:20;2.60;99.90
9497;DHT22;4786;51.270;4.456;2023-02-28T07:08:48;2.90;99.90
9497;DHT22;4786;51.270;4.456;2023-02-28T07:11:14;2.70;99.90
9497;DHT22;4786;51.270;4.456;2023-02-28T07:13:41;2.70;99.90
9497;DHT22;4786;51.270;4.456;2023-02-28T07:16:09;2.70;99.90
9497;DHT22;4786;51.270;4.456;2023-02-28T07:18:35;2.70;99.90
9497;DHT22;4786;51.270;4.456;2023-02-28T07:21:03;2.70;99.90
9497;DHT22;4786;51.270;4.456;2023-02-28T07:23:30;2.80;99.90
9497;DHT22;4786;51.270;4.456;2023-02-28T07:25:55;2.80;99.90
9497;DHT22;4786;51.270;4.456;2023-02-28T07:28:21;2.80;99.90
9497;DHT22;4786;51.270;4.456;2023-02-28T07:30:47;2.80;99.90
9497;DHT22;4786;51.270;4.456;2023-02-28T07:33:13;3.00;99.90
9497;DHT22;4786;51.270;4.456;2023-02-28T07:35:39;2.80;99.90
9497;DHT22;4786;51.270;4.456;2023-02-28T07:38:05;2.90;99.90
9497;DHT22;4786;51.270;4.456;2023-02-28T07:40:34;2.80;99.90
9497;DHT22;4786;51.270;4.456;2023-02-28T07:43:00;2.90;99.90
9497;DHT22;4786;51.270;4.456;2023-02-28T07:45:26;2.90;99.90
9497;DHT22;4786;51.270;4.456;2023-02-28T07:47:54;3.00;99.90
9497;DHT22;4786;51.270;4.456;2023-02-28T07:50:20;3.00;99.90
9497;DHT22;4786;51.270;4.456;2023-02-28T07:52:46;3.00;99.90
9497;DHT22;4786;51.270;4.456;2023-02-28T07:55:12;3.10;99.90
9497;DHT22;4786;51.270;4.456;2023-02-28T07:57:39;3.00;99.90
9497;DHT22;4786;51.270;4.456;2023-02-28T08:00:08;3.20;99.90
9497;DHT22;4786;51.270;4.456;2023-02-28T08:02:38;3.20;99.90
9497;DHT22;4786;51.270;4.456;2023-02-28T08:05:04;3.20;99.90
9497;DHT22;4786;51.270;4.456;2023-02-28T08:07:30;3.10;99.90
9497;DHT22;4786;51.270;4.456;2023-02-28T08:09:56;3.20;99.90
9497;DHT22;4786;51.270;4.456;2023-02-28T08:12:22;3.20;99.90
9497;DHT22;4786;51.270;4.456;2023-02-28T08:14:47;3.20;99.90
9497;DHT22;4786;51.270;4.456;2023-02-28T08:17:13;3.30;99.90
9497;DHT22;4786;51.270;4.456;2023-02-28T08:19:39;3.50;99.90
9497;DHT22;4786;51.270;4.456;2023-02-28T08:22:04;3.60;99.90
9497;DHT22;4786;51.270;4.456;2023-02-28T08:24:30;3.80;99.90
9497;DHT22;4786;51.270;4.456;2023-02-28T08:26:58;3.90;99.90
9497;DHT22;4786;51.270;4.456;2023-02-28T08:29:25;3.90;99.90
9497;DHT22;4786;51.270;4.456;2023-02-28T08:31:50;4.00;99.90
9497;DHT22;4786;51.270;4.456;2023-02-28T08:34:16;4.20;99.90
9497;DHT22;4786;51.270;4.456;2023-02-28T08:36:43;4.60;99.90
9497;DHT22;4786;51.270;4.456;2023-02-28T08:39:10;4.60;99.90
9497;DHT22;4786;51.270;4.456;2023-02-28T08:41:36;4.70;99.90
9497;DHT22;4786;51.270;4.456;2023-02-28T08:44:02;4.80;99.90
9497;DHT22;4786;51.270;4.456;2023-02-28T08:46:28;4.80;99.90
9497;DHT22;4786;51.270;4.456;2023-02-28T08:48:55;4.60;99.90
9497;DHT22;4786;51.270;4.456;2023-02-28T08:51:22;4.30;99.90
9497;DHT22;4786;51.270;4.456;2023-02-28T08:53:53;4.50;99.90
9497;DHT22;4786;51.270;4.456;2023-02-28T08:56:20;4.30;99.90
9497;DHT22;4786;51.270;4.456;2023-02-28T08:58:47;4.30;99.90
9497;DHT22;4786;51.270;4.456;2023-02-28T09:01:18;4.30;99.90
9497;DHT22;4786;51.270;4.456;2023-02-28T09:03:46;4.40;99.90
9497;DHT22;4786;51.270;4.456;2023-02-28T09:06:13;4.40;99.90
9497;DHT22;4786;51.270;4.456;2023-02-28T09:08:40;4.60;99.90
9497;DHT22;4786;51.270;4.456;2023-02-28T09:11:06;4.60;99.90
9497;DHT22;4786;51.270;4.456;2023-02-28T09:13:32;4.80;99.90
9497;DHT22;4786;51.270;4.456;2023-02-28T09:16:00;4.90;99.90
9497;DHT22;4786;51.270;4.456;2023-02-28T09:18:26;5.10;99.90
9497;DHT22;4786;51.270;4.456;2023-02-28T09:20:52;5.20;99.90
9497;DHT22;4786;51.270;4.456;2023-02-28T09:23:18;5.70;99.90
9497;DHT22;4786;51.270;4.456;2023-02-28T09:25:52;5.80;99.90
9497;DHT22;4786;51.270;4.456;2023-02-28T09:28:19;5.80;99.90
9497;DHT22;4786;51.270;4.456;2023-02-28T09:30:48;6.10;99.90
9497;DHT22;4786;51.270;4.456;2023-02-28T09:33:16;6.50;99.90
9497;DHT22;4786;51.270;4.456;2023-02-28T09:35:42;6.50;99.90
9497;DHT22;4786;51.270;4.456;2023-02-28T09:38:08;6.60;99.90
9497;DHT22;4786;51.270;4.456;2023-02-28T09:41:00;6.70;99.90
9497;DHT22;4786;51.270;4.456;2023-02-28T09:43:31;6.60;99.90
9497;DHT22;4786;51.270;4.456;2023-02-28T09:46:46;6.80;99.90
9497;DHT22;4786;51.270;4.456;2023-02-28T09:48:47;6.80;99.90
9497;DHT22;4786;51.270;4.456;2023-02-28T09:54:23;6.70;99.90
9497;DHT22;4786;51.270;4.456;2023-02-28T09:56:51;6.50;99.90
9497;DHT22;4786;51.270;4.456;2023-02-28T10:04:58;6.70;99.90
9497;DHT22;4786;51.270;4.456;2023-02-28T10:12:53;6.90;99.50
9497;DHT22;4786;51.270;4.456;2023-02-28T10:15:23;7.00;99.90
9497;DHT22;4786;51.270;4.456;2023-02-28T10:17:54;7.10;99.50
9497;DHT22;4786;51.270;4.456;2023-02-28T10:20:23;7.10;99.30
9497;DHT22;4786;51.270;4.456;2023-02-28T10:25:35;7.00;99.80
9497;DHT22;4786;51.270;4.456;2023-02-28T10:28:12;6.90;98.40
9497;DHT22;4786;51.270;4.456;2023-02-28T10:30:45;6.70;97.60
9497;DHT22;4786;51.270;4.456;2023-02-28T10:33:25;6.70;98.70
9497;DHT22;4786;51.270;4.456;2023-02-28T10:35:52;6.80;98.90
9497;DHT22;4786;51.270;4.456;2023-02-28T10:38:24;6.80;98.50
9497;DHT22;4786;51.270;4.456;2023-02-28T10:40:51;6.90;98.00
9497;DHT22;4786;51.270;4.456;2023-02-28T10:43:28;7.20;98.10
9497;DHT22;4786;51.270;4.456;2023-02-28T10:46:02;7.20;95.70
9497;DHT22;4786;51.270;4.456;2023-02-28T10:51:08;6.80;94.60
9497;DHT22;4786;51.270;4.456;2023-02-28T10:54:00;6.60;94.00
9497;DHT22;4786;51.270;4.456;2023-02-28T10:56:26;6.50;94.00
9497;DHT22;4786;51.270;4.456;2023-02-28T11:01:26;6.70;93.50
9497;DHT22;4786;51.270;4.456;2023-02-28T11:03:59;6.80;94.90
9497;DHT22;4786;51.270;4.456;2023-02-28T11:06:33;6.80;93.40
9497;DHT22;4786;51.270;4.456;2023-02-28T11:09:36;6.80;93.40
9497;DHT22;4786;51.270;4.456;2023-02-28T11:12:06;6.70;93.10
9497;DHT22;4786;51.270;4.456;2023-02-28T11:14:51;6.80;93.30
9497;DHT22;4786;51.270;4.456;2023-02-28T11:17:27;6.70;92.70
9497;DHT22;4786;51.270;4.456;2023-02-28T11:20:04;6.80;93.60
9497;DHT22;4786;51.270;4.456;2023-02-28T11:22:37;6.90;93.20
9497;DHT22;4786;51.270;4.456;2023-02-28T11:25:31;7.00;92.20
9497;DHT22;4786;51.270;4.456;2023-02-28T11:28:02;7.00;92.10
9497;DHT22;4786;51.270;4.456;2023-02-28T11:36:24;7.30;90.40
9497;DHT22;4786;51.270;4.456;2023-02-28T11:38:53;7.50;91.60
9497;DHT22;4786;51.270;4.456;2023-02-28T11:41:33;7.80;90.60
9497;DHT22;4786;51.270;4.456;2023-02-28T11:47:00;7.90;87.90
9497;DHT22;4786;51.270;4.456;2023-02-28T11:49:56;7.70;85.30
9497;DHT22;4786;51.270;4.456;2023-02-28T11:55:59;7.50;86.20
9497;DHT22;4786;51.270;4.456;2023-02-28T11:58:52;7.70;85.00
9497;DHT22;4786;51.270;4.456;2023-02-28T12:04:25;7.80;82.40
9497;DHT22;4786;51.270;4.456;2023-02-28T12:07:58;7.70;82.20
9497;DHT22;4786;51.270;4.456;2023-02-28T12:10:02;7.70;81.50
9497;DHT22;4786;51.270;4.456;2023-02-28T12:18:42;7.50;79.50
9497;DHT22;4786;51.270;4.456;2023-02-28T12:29:24;7.70;83.70
9497;DHT22;4786;51.270;4.456;2023-02-28T12:32:14;7.80;83.80
9497;DHT22;4786;51.270;4.456;2023-02-28T12:34:49;7.90;83.30
9497;DHT22;4786;51.270;4.456;2023-02-28T12:37:31;8.10;87.30
9497;DHT22;4786;51.270;4.456;2023-02-28T12:40:02;8.10;82.50
9497;DHT22;4786;51.270;4.456;2023-02-28T12:43:02;8.10;83.50
9497;DHT22;4786;51.270;4.456;2023-02-28T12:45:31;8.00;82.50
9497;DHT22;4786;51.270;4.456;2023-02-28T12:48:07;7.90;81.70
9497;DHT22;4786;51.270;4.456;2023-02-28T12:50:34;7.90;83.70
9497;DHT22;4786;51.270;4.456;2023-02-28T12:53:38;7.90;82.50
9497;DHT22;4786;51.270;4.456;2023-02-28T12:59:00;7.60;81.80
9497;DHT22;4786;51.270;4.456;2023-02-28T13:07:19;7.10;82.70
9497;DHT22;4786;51.270;4.456;2023-02-28T13:09:58;7.00;84.20
9497;DHT22;4786;51.270;4.456;2023-02-28T13:12:26;7.00;85.10
9497;DHT22;4786;51.270;4.456;2023-02-28T13:15:16;7.00;83.90
9497;DHT22;4786;51.270;4.456;2023-02-28T13:17:49;7.10;86.30
9497;DHT22;4786;51.270;4.456;2023-02-28T13:20:19;7.40;84.40
9497;DHT22;4786;51.270;4.456;2023-02-28T13:22:47;7.20;84.70
9497;DHT22;4786;51.270;4.456;2023-02-28T13:27:55;7.10;83.60
9497;DHT22;4786;51.270;4.456;2023-02-28T13:33:34;7.10;85.80
9497;DHT22;4786;51.270;4.456;2023-02-28T13:36:22;6.90;83.80
9497;DHT22;4786;51.270;4.456;2023-02-28T13:38:56;6.90;84.20
9497;DHT22;4786;51.270;4.456;2023-02-28T13:44:23;7.00;85.00
9497;DHT22;4786;51.270;4.456;2023-02-28T13:49:28;6.90;84.40
9497;DHT22;4786;51.270;4.456;2023-02-28T14:05:33;6.90;89.10
9497;DHT22;4786;51.270;4.456;2023-02-28T14:08:21;7.00;90.30
9497;DHT22;4786;51.270;4.456;2023-02-28T14:10:50;7.20;89.30
9497;DHT22;4786;51.270;4.456;2023-02-28T14:16:01;7.20;87.00
9497;DHT22;4786;51.270;4.456;2023-02-28T14:18:31;7.10;87.20
9497;DHT22;4786;51.270;4.456;2023-02-28T14:23:36;6.80;87.50
9497;DHT22;4786;51.270;4.456;2023-02-28T14:26:32;6.90;88.30
9497;DHT22;4786;51.270;4.456;2023-02-28T14:32:34;6.70;88.80
9497;DHT22;4786;51.270;4.456;2023-02-28T14:35:16;6.90;90.10
9497;DHT22;4786;51.270;4.456;2023-02-28T14:37:45;6.90;89.90
9497;DHT22;4786;51.270;4.456;2023-02-28T14:40:30;6.70;86.80
9497;DHT22;4786;51.270;4.456;2023-02-28T14:43:03;6.70;88.70
9497;DHT22;4786;51.270;4.456;2023-02-28T14:45:31;6.80;89.20
9497;DHT22;4786;51.270;4.456;2023-02-28T14:47:58;6.80;89.20
9497;DHT22;4786;51.270;4.456;2023-02-28T14:50:31;6.60;88.80
9497;DHT22;4786;51.270;4.456;2023-02-28T14:52:58;6.70;90.10
9497;DHT22;4786;51.270;4.456;2023-02-28T14:55:28;6.70;89.90
9497;DHT22;4786;51.270;4.456;2023-02-28T14:58:00;6.70;89.30
9497;DHT22;4786;51.270;4.456;2023-02-28T15:00:32;6.80;89.30
9497;DHT22;4786;51.270;4.456;2023-02-28T15:02:59;6.80;89.90
9497;DHT22;4786;51.270;4.456;2023-02-28T15:05:31;6.80;88.70
9497;DHT22;4786;51.270;4.456;2023-02-28T15:08:13;6.80;89.70
9497;DHT22;4786;51.270;4.456;2023-02-28T15:10:49;6.80;88.90
9497;DHT22;4786;51.270;4.456;2023-02-28T15:13:16;6.60;89.00
9497;DHT22;4786;51.270;4.456;2023-02-28T15:18:14;6.60;89.50
9497;DHT22;4786;51.270;4.456;2023-02-28T15:20:42;6.60;90.10
9497;DHT22;4786;51.270;4.456;2023-02-28T15:23:10;6.60;90.70
9497;DHT22;4786;51.270;4.456;2023-02-28T15:25:37;6.60;90.50
9497;DHT22;4786;51.270;4.456;2023-02-28T15:28:03;6.60;90.10
9497;DHT22;4786;51.270;4.456;2023-02-28T15:30:30;6.70;90.50
9497;DHT22;4786;51.270;4.456;2023-02-28T15:33:22;6.50;90.90
9497;DHT22;4786;51.270;4.456;2023-02-28T15:35:48;6.40;90.60
9497;DHT22;4786;51.270;4.456;2023-02-28T15:38:24;6.30;90.50
9497;DHT22;4786;51.270;4.456;2023-02-28T15:46:12;6.20;90.90
9497;DHT22;4786;51.270;4.456;2023-02-28T15:48:55;6.20;91.70
9497;DHT22;4786;51.270;4.456;2023-02-28T15:51:34;6.20;91.10
9497;DHT22;4786;51.270;4.456;2023-02-28T15:54:08;6.20;91.10
9497;DHT22;4786;51.270;4.456;2023-02-28T15:56:39;6.20;92.10
9497;DHT22;4786;51.270;4.456;2023-02-28T15:59:15;6.30;91.60
9497;DHT22;4786;51.270;4.456;2023-02-28T16:01:43;6.30;91.40
9497;DHT22;4786;51.270;4.456;2023-02-28T16:04:18;6.30;91.40
9497;DHT22;4786;51.270;4.456;2023-02-28T16:07:06;6.40;92.10
9497;DHT22;4786;51.270;4.456;2023-02-28T16:09:31;6.30;91.60
9497;DHT22;4786;51.270;4.456;2023-02-28T16:12:02;6.40;91.90
9497;DHT22;4786;51.270;4.456;2023-02-28T16:14:29;6.50;91.60
9497;DHT22;4786;51.270;4.456;2023-02-28T16:17:04;6.40;91.40
9497;DHT22;4786;51.270;4.456;2023-02-28T16:19:31;6.40;91.60
9497;DHT22;4786;51.270;4.456;2023-02-28T16:21:58;6.40;91.70
9497;DHT22;4786;51.270;4.456;2023-02-28T16:24:23;6.30;91.70
9497;DHT22;4786;51.270;4.456;2023-02-28T16:26:51;6.20;91.70
9497;DHT22;4786;51.270;4.456;2023-02-28T16:29:28;6.20;91.60
9497;DHT22;4786;51.270;4.456;2023-02-28T16:31:55;6.10;91.80
9497;DHT22;4786;51.270;4.456;2023-02-28T16:34:21;6.10;91.90
9497;DHT22;4786;51.270;4.456;2023-02-28T16:36:50;6.00;92.50
9497;DHT22;4786;51.270;4.456;2023-02-28T16:39:16;6.00;92.10
9497;DHT22;4786;51.270;4.456;2023-02-28T16:41:45;5.90;92.40
9497;DHT22;4786;51.270;4.456;2023-02-28T16:44:27;5.90;92.60
9497;DHT22;4786;51.270;4.456;2023-02-28T16:46:54;5.90;92.40
9497;DHT22;4786;51.270;4.456;2023-02-28T16:49:20;6.00;92.70
9497;DHT22;4786;51.270;4.456;2023-02-28T16:51:46;5.90;93.00
9497;DHT22;4786;51.270;4.456;2023-02-28T16:54:12;6.10;93.00
9497;DHT22;4786;51.270;4.456;2023-02-28T16:56:42;5.80;92.90
9497;DHT22;4786;51.270;4.456;2023-02-28T16:59:09;5.80;93.00
9497;DHT22;4786;51.270;4.456;2023-02-28T17:01:36;5.70;93.40
9497;DHT22;4786;51.270;4.456;2023-02-28T17:04:02;5.70;93.60
9497;DHT22;4786;51.270;4.456;2023-02-28T17:06:29;5.70;93.30
9497;DHT22;4786;51.270;4.456;2023-02-28T17:08:56;5.70;93.70
9497;DHT22;4786;51.270;4.456;2023-02-28T17:11:24;5.70;93.20
9497;DHT22;4786;51.270;4.456;2023-02-28T17:13:50;5.60;93.70
9497;DHT22;4786;51.270;4.456;2023-02-28T17:16:22;5.60;93.90
9497;DHT22;4786;51.270;4.456;2023-02-28T17:18:48;5.60;94.00
9497;DHT22;4786;51.270;4.456;2023-02-28T17:21:16;5.50;94.50
9497;DHT22;4786;51.270;4.456;2023-02-28T17:23:43;5.50;94.50
9497;DHT22;4786;51.270;4.456;2023-02-28T17:26:19;5.40;94.30
9497;DHT22;4786;51.270;4.456;2023-02-28T17:28:47;5.30;94.40
9497;DHT22;4786;51.270;4.456;2023-02-28T17:31:13;5.40;94.90
9497;DHT22;4786;51.270;4.456;2023-02-28T17:33:39;5.20;94.80
9497;DHT22;4786;51.270;4.456;2023-02-28T17:36:05;5.20;95.10
9497;DHT22;4786;51.270;4.456;2023-02-28T17:38:32;5.20;95.30
9497;DHT22;4786;51.270;4.456;2023-02-28T17:40:58;5.10;95.40
9497;DHT22;4786;51.270;4.456;2023-02-28T17:43:26;5.20;96.10
9497;DHT22;4786;51.270;4.456;2023-02-28T17:45:53;5.10;95.90
9497;DHT22;4786;51.270;4.456;2023-02-28T17:48:19;5.10;95.80
9497;DHT22;4786;51.270;4.456;2023-02-28T17:50:45;5.00;96.30
9497;DHT22;4786;51.270;4.456;2023-02-28T17:53:11;4.90;96.50
9497;DHT22;4786;51.270;4.456;2023-02-28T17:55:37;4.90;96.80
9497;DHT22;4786;51.270;4.456;2023-02-28T17:58:04;4.90;97.20
9497;DHT22;4786;51.270;4.456;2023-02-28T18:00:30;4.90;97.20
9497;DHT22;4786;51.270;4.456;2023-02-28T18:02:59;4.90;97.20
9497;DHT22;4786;51.270;4.456;2023-02-28T18:05:26;4.90;97.90
9497;DHT22;4786;51.270;4.456;2023-02-28T18:07:52;4.90;98.10
9497;DHT22;4786;51.270;4.456;2023-02-28T18:10:19;4.80;97.70
9497;DHT22;4786;51.270;4.456;2023-02-28T18:12:47;4.70;97.50
9497;DHT22;4786;51.270;4.456;2023-02-28T18:15:14;4.70;98.10
9497;DHT22;4786;51.270;4.456;2023-02-28T18:17:40;4.60;97.90
9497;DHT22;4786;51.270;4.456;2023-02-28T18:20:08;4.70;98.50
9497;DHT22;4786;51.270;4.456;2023-02-28T18:22:35;4.60;98.40
9497;DHT22;4786;51.270;4.456;2023-02-28T18:25:05;4.60;99.00
9497;DHT22;4786;51.270;4.456;2023-02-28T18:27:31;4.50;99.40
9497;DHT22;4786;51.270;4.456;2023-02-28T18:29:56;4.50;99.10
9497;DHT22;4786;51.270;4.456;2023-02-28T18:32:22;4.50;99.50
9497;DHT22;4786;51.270;4.456;2023-02-28T18:34:48;4.40;99.90
9497;DHT22;4786;51.270;4.456;2023-02-28T18:37:14;4.40;99.50
9497;DHT22;4786;51.270;4.456;2023-02-28T18:39:40;4.30;99.80
9497;DHT22;4786;51.270;4.456;2023-02-28T18:42:07;4.40;99.90
9497;DHT22;4786;51.270;4.456;2023-02-28T18:44:33;4.30;99.90
9497;DHT22;4786;51.270;4.456;2023-02-28T18:46:59;4.30;99.90
9497;DHT22;4786;51.270;4.456;2023-02-28T18:49:24;4.30;99.90
9497;DHT22;4786;51.270;4.456;2023-02-28T18:51:51;4.30;99.90
9497;DHT22;4786;51.270;4.456;2023-02-28T18:54:17;4.10;99.90
9497;DHT22;4786;51.270;4.456;2023-02-28T18:56:43;4.10;99.90